x

Freeport, Tx - 60 Nm South Of Freeport, Tx (42019) Wave Buoy

7:50pm - Tue 21st Oct 2014 All times are CDT. -5 hours from GMT.

  • Sig Wave height 5.2ft
  • Swell Direction
  • Peak Period 6s
  • Average Period 5s
  • Wind
    20mph, 25mph gusts
  • Sea Temp 82°f
  • Air Temp 77°f
  • Sea Pressure 1014.6mb
  • Freeport, Tx - 60 Nm South Of Freeport, Tx
  • Freeport, Tx - 60 Nm South Of Freeport, Tx

More Historic Weather Station data

Upgrade to MSW Pro to gain access to the past 30 days of data for over 8000 Wavebouys and Weather Stations around the globe.

Join Pro

Comparision Forecast

View Surf forecast
   
Tue 10/21 7:50pm 5ft 6s 5s 20 25 mph 1014.6mb 82f 77f
6:50pm 5ft 7s 5s 20 25 mph 1014mb 82f 77f
5:50pm 4.5ft 7s 5s 20 25 mph 1013.7mb 82f 77f
4:50pm 5ft 7s 5s 18 22 mph 1013.8mb 82f 77f
3:50pm 5ft 7s 5s 18 20 mph 1014mb 82f 78f
2:50pm 4.5ft 7s 5s 18 22 mph 1014.3mb 82f 78f
1:50pm 5ft 7s 5s 18 22 mph 1014.7mb 82f 78f
12:50pm 4.5ft 7s 5s 18 20 mph 1015.7mb 82f 78f
11:50am 4.5ft 7s 5s 18 22 mph 1016mb 82f 78f
10:50am 4.5ft 7s 5s 18 20 mph 1016.2mb 82f 78f
9:50am 4.5ft 6s 5s 18 22 mph 1016.1mb 82f 78f
8:50am 4.5ft 6s 5s 18 22 mph 1015.6mb 82f 78f
7:50am 4.5ft 6s 5s 18 22 mph 1015mb 82f 78f
6:50am 4ft 5s 4s 18 22 mph 1014.5mb 82f 78f
5:50am 4ft 6s 5s 18 20 mph 1014.4mb 82f 78f
4:50am 4ft 6s 5s 18 20 mph 1014.3mb 81f 78f
3:50am 4.5ft 6s 5s 18 20 mph 1014.1mb 81f 78f
2:50am 4.5ft 6s 5s 18 22 mph 1014.3mb 81f 78f
1:50am 4.5ft 6s 5s 18 20 mph 1014.5mb 81f 78f
12:50am 5ft 6s 5s 18 22 mph 1014.6mb 82f 78f
Mon 10/20 11:50pm 4.5ft 6s 5s 18 22 mph 1015mb 82f 78f
10:50pm 4.5ft 6s 5s 20 25 mph 1015.1mb 82f 78f
9:50pm 5ft 6s 5s 22 25 mph 1015mb 82f 78f
8:50pm 4.5ft 6s 4s 22 27 mph 1014.5mb 82f 78f
7:50pm 4.5ft 6s 4s 20 25 mph 1014.3mb 82f 78f
6:50pm 4.5ft 6s 4s 16 20 mph 1014.3mb 82f 77f
5:50pm 4.5ft 6s 5s 20 25 mph 1014.2mb 82f 75f
4:50pm 4.5ft 6s 5s 13 20 mph 1014.3mb 82f 73f
3:50pm 3.5ft 5s 4s 16 22 mph 1014.2mb 82f 78f
2:50pm 4ft 6s 4s 18 20 mph 1014.2mb 82f 78f
1:50pm  -   -   -  18 20 mph 1014.7mb 82f 79f
12:50pm 4.5ft 6s 5s 18 20 mph 1015.6mb 82f 79f
11:50am 4ft 6s 5s 18 20 mph 1015.8mb 82f 79f
10:50am 4.5ft 6s 5s 16 20 mph 1016.1mb 81f 79f
9:50am 4ft 6s 5s 16 18 mph 1015.9mb 81f 79f
8:50am 4ft 6s 4s 18 20 mph 1015.1mb 81f 79f
7:50am 4.5ft 6s 5s 18 22 mph 1014.6mb 81f 79f
6:50am 4.5ft 6s 4s 18 22 mph 1014.3mb 81f 79f
5:50am 4.5ft 6s 5s 18 22 mph 1013.6mb 81f 78f
4:50am 4.5ft 5s 5s 20 25 mph 1013.7mb 81f 78f
3:50am 4.5ft 6s 5s 20 25 mph 1014.2mb 81f 78f
2:50am 4.5ft 6s 4s 20 22 mph 1014.6mb 81f 79f
1:50am 4.5ft 5s 4s 20 22 mph 1014.8mb 81f 79f
12:50am 4ft 5s 4s 20 25 mph 1015.1mb 81f 79f
Sun 10/19 11:50pm 4ft 5s  -  18 22 mph 1015.7mb 81f 78f
10:50pm 3.5ft 6s 4s 20 25 mph 1015.8mb 81f 78f
9:50pm 3.5ft 5s 4s 16 20 mph 1015.6mb 81f 78f
8:50pm 3.5ft 5s 4s 13 18 mph 1015.8mb 81f 78f
7:50pm 3.5ft 5s 4s 16 18 mph 1015.7mb 81f 78f
6:50pm 3.5ft 5s 4s 13 16 mph 1015.6mb 81f 79f
5:50pm 3.5ft 5s 4s 11 13 mph 1015.6mb 82f 79f
4:50pm 3.5ft 5s 4s 11 13 mph 1015.6mb 82f 79f
3:50pm 3ft 5s 4s 11 13 mph 1015.9mb 82f 79f
2:50pm 3ft 5s 4s 16 18 mph 1015.9mb 82f 79f
1:50pm 3ft 5s 4s 16 20 mph 1016.7mb 82f 79f
12:50pm 3.5ft 5s 4s 18 20 mph 1016.9mb 81f 80f
11:50am 4ft 5s 4s 16 20 mph 1017.7mb 81f 80f
10:50am 4ft 5s 4s 18 22 mph 1017.4mb 81f 80f
9:50am 3.5ft 5s 4s 18 22 mph 1017.1mb 81f 80f
8:50am 3ft 4s 4s 18 22 mph 1016.6mb 81f 79f
7:50am 2.5ft 5s 4s 18 20 mph 1016.1mb 81f 79f
6:50am 2.5ft 5s 4s 16 20 mph 1016.1mb 81f 79f
5:50am 2.5ft 5s 4s 13 18 mph 1015.8mb 81f 79f
4:50am 2.5ft 5s 4s 13 18 mph 1015.7mb 81f 79f
3:50am 2.5ft 5s 4s 13 16 mph 1015.7mb 81f 78f
2:50am 2.5ft 5s 4s 11 13 mph 1016.3mb 81f 78f
1:50am 2.5ft 5s 4s 9 11 mph 1016.7mb 81f 79f
12:50am 2.5ft 5s 4s 9
mph
1016.8mb 81f 79f
Sat 10/18 11:50pm 2.5ft 5s 4s 9 11 mph 1017.2mb 81f 79f
10:50pm 2.5ft 5s 4s 11 16 mph 1017mb 81f 79f
9:50pm 2.5ft 4s 4s 11 16 mph 1017.1mb 81f 79f
8:50pm 2.5ft 4s 4s 13 16 mph 1016.3mb 81f 79f
7:50pm 2.5ft 5s 4s 13 16 mph 1015.4mb 81f 79f
6:50pm 2.5ft 4s 4s 13 16 mph 1015.1mb 82f 79f
5:50pm 2.5ft 4s 4s 13 16 mph 1014.8mb 82f 79f
4:50pm 2ft 4s 4s 13 16 mph 1014.7mb 82f 80f
3:50pm 2ft 5s 4s 13 18 mph 1014.5mb 82f 80f
2:50pm 2.5ft 5s 4s 16 18 mph 1014.7mb 82f 80f
1:50pm 2ft 5s 4s 13 16 mph 1015.4mb 82f 80f
12:50pm 2ft 5s 4s 13 16 mph 1016.1mb 82f 80f
11:50am 2ft 5s 4s 9 13 mph 1016.6mb 82f 80f
10:50am 2ft 4s 4s 9
mph
1016.4mb 82f 80f
9:50am 2ft 5s 4s 7 9 mph 1016.1mb 82f 80f
8:50am 2ft 5s 4s 4 7 mph 1015.6mb 81f 81f
7:50am 2ft 4s 4s 4 7 mph 1015.1mb 81f 80f
6:50am 2ft 4s 4s 7 9 mph 1014.7mb 81f 80f
5:50am 2.5ft 5s 4s 9 11 mph 1014.4mb 81f 80f
4:50am 2.5ft 5s 4s 11
mph
1013.8mb 81f 80f
3:50am 2.5ft 5s 4s 11 13 mph 1013.9mb 81f 80f
2:50am 2.5ft 4s 4s 11 16 mph 1013.9mb 81f 80f